createdAt,value
2016-08-02T00:00:56.917Z,1012.97
2016-08-02T00:01:56.942Z,1013
2016-08-02T00:02:56.969Z,1013.02
2016-08-02T00:03:56.996Z,1013.01
2016-08-02T00:04:57.022Z,1013
2016-08-02T00:05:57.045Z,1013.03
2016-08-02T00:06:57.070Z,1013.01
2016-08-02T00:07:57.099Z,1012.97
2016-08-02T00:08:57.125Z,1013
2016-08-02T00:09:57.151Z,1012.99
2016-08-02T00:10:57.175Z,1013
2016-08-02T00:11:57.200Z,1012.98
2016-08-02T00:13:57.252Z,1012.98
2016-08-02T00:14:57.276Z,1012.97
2016-08-02T00:15:57.302Z,1012.93
2016-08-02T00:16:57.328Z,1012.93
2016-08-02T00:17:57.453Z,1012.93
2016-08-02T00:18:57.379Z,1012.92
2016-08-02T00:19:57.404Z,1012.92
2016-08-02T00:20:57.431Z,1012.94
2016-08-02T00:21:57.455Z,1012.9
2016-08-02T00:22:57.487Z,1012.88
2016-08-02T00:23:57.509Z,1012.91
2016-08-02T00:24:57.533Z,1012.89
2016-08-02T00:25:57.558Z,1012.93
2016-08-02T00:26:57.586Z,1012.91
2016-08-02T00:27:57.611Z,1012.92
2016-08-02T00:29:57.663Z,1012.88
2016-08-02T00:30:57.686Z,1012.92
2016-08-02T00:31:57.711Z,1012.89
2016-08-02T00:32:57.739Z,1012.89
2016-08-02T00:33:57.762Z,1012.87
2016-08-02T00:34:57.791Z,1012.86
2016-08-02T00:35:57.814Z,1012.82
2016-08-02T00:36:57.839Z,1012.78
2016-08-02T00:37:57.865Z,1012.79
2016-08-02T00:38:57.893Z,1012.81
2016-08-02T00:39:57.918Z,1012.76
2016-08-02T00:40:57.940Z,1012.79
2016-08-02T00:41:57.967Z,1012.78
2016-08-02T00:42:57.995Z,1012.8
2016-08-02T00:43:58.019Z,1012.8
2016-08-02T00:45:58.070Z,1012.72
2016-08-02T00:46:58.096Z,1012.72
2016-08-02T00:47:58.121Z,1012.73
2016-08-02T00:48:58.147Z,1012.74
2016-08-02T00:49:58.170Z,1012.7
2016-08-02T00:50:58.195Z,1012.69
2016-08-02T00:51:58.223Z,1012.69
2016-08-02T00:52:58.249Z,1012.65
2016-08-02T00:53:58.274Z,1012.66
2016-08-02T00:54:58.297Z,1012.64
2016-08-02T00:55:58.322Z,1012.62
2016-08-02T00:56:58.347Z,1012.61
2016-08-02T00:57:58.374Z,1012.57
2016-08-02T00:58:58.401Z,1012.58
2016-08-02T01:00:58.451Z,1012.6
2016-08-02T01:01:58.474Z,1012.58
2016-08-02T01:02:58.503Z,1012.58
2016-08-02T01:03:58.526Z,1012.58
2016-08-02T01:04:58.554Z,1012.55
2016-08-02T01:05:58.578Z,1012.56
2016-08-02T01:06:58.602Z,1012.53
2016-08-02T01:07:58.630Z,1012.51
2016-08-02T01:08:58.654Z,1012.56
2016-08-02T01:09:58.678Z,1012.55
2016-08-02T01:10:58.704Z,1012.56
2016-08-02T01:11:58.729Z,1012.54
2016-08-02T01:12:58.755Z,1012.59
2016-08-02T01:13:58.781Z,1012.59
2016-08-02T01:14:58.806Z,1012.64
2016-08-02T01:15:58.830Z,1012.61
2016-08-02T01:16:58.854Z,1012.63
2016-08-02T01:17:58.883Z,1012.6
2016-08-02T01:18:58.908Z,1012.62
2016-08-02T01:19:58.932Z,1012.61
2016-08-02T01:20:58.958Z,1012.62
2016-08-02T01:21:58.983Z,1012.6
2016-08-02T01:22:59.007Z,1012.58
2016-08-02T01:23:59.033Z,1012.59
2016-08-02T01:24:59.061Z,1012.59
2016-08-02T01:25:59.082Z,1012.55
2016-08-02T01:26:59.108Z,1012.57
2016-08-02T01:27:59.132Z,1012.56
2016-08-02T01:28:59.160Z,1012.55
2016-08-02T01:29:59.185Z,1012.55
2016-08-02T01:30:59.208Z,1012.56
2016-08-02T01:32:59.258Z,1012.54
2016-08-02T01:33:59.285Z,1012.51
2016-08-02T01:34:59.311Z,1012.48
2016-08-02T01:35:59.336Z,1012.48
2016-08-02T01:36:59.359Z,1012.5
2016-08-02T01:37:59.387Z,1012.51
2016-08-02T01:38:59.409Z,1012.49
2016-08-02T01:39:59.434Z,1012.54
2016-08-02T01:40:59.460Z,1012.55
2016-08-02T01:41:59.484Z,1012.57
2016-08-02T01:42:59.510Z,1012.6
2016-08-02T01:43:59.585Z,1012.59
2016-08-02T01:44:59.562Z,1012.59
2016-08-02T01:45:59.586Z,1012.57
2016-08-02T01:46:59.623Z,1012.61
2016-08-02T01:48:59.661Z,1012.57
2016-08-02T01:49:59.690Z,1012.59
2016-08-02T01:50:59.710Z,1012.53
2016-08-02T01:51:59.735Z,1012.51
2016-08-02T01:52:59.761Z,1012.53
2016-08-02T01:53:59.785Z,1012.51
2016-08-02T01:54:59.811Z,1012.49
2016-08-02T01:55:59.836Z,1012.52
2016-08-02T01:56:59.860Z,1012.51
2016-08-02T01:57:59.886Z,1012.48
2016-08-02T01:58:59.913Z,1012.5
2016-08-02T01:59:59.938Z,1012.46
2016-08-02T02:00:59.963Z,1012.5
2016-08-02T02:01:59.987Z,1012.44
2016-08-02T02:03:00.014Z,1012.45
2016-08-02T02:05:00.063Z,1012.39
2016-08-02T02:06:00.089Z,1012.38
2016-08-02T02:07:00.112Z,1012.39
2016-08-02T02:08:00.136Z,1012.37
2016-08-02T02:09:00.161Z,1012.37
2016-08-02T02:10:00.187Z,1012.35
2016-08-02T02:11:00.213Z,1012.36
2016-08-02T02:12:00.236Z,1012.36
2016-08-02T02:13:00.261Z,1012.37
2016-08-02T02:14:00.286Z,1012.31
2016-08-02T02:15:00.310Z,1012.34
2016-08-02T02:16:00.337Z,1012.37
2016-08-02T02:17:00.361Z,1012.35
2016-08-02T02:18:00.388Z,1012.33
2016-08-02T02:19:00.410Z,1012.33
2016-08-02T02:21:00.460Z,1012.31
2016-08-02T02:22:00.488Z,1012.35
2016-08-02T02:23:00.512Z,1012.32
2016-08-02T02:25:00.563Z,1012.34
2016-08-02T02:26:00.587Z,1012.35
2016-08-02T02:27:00.610Z,1012.35
2016-08-02T02:28:00.636Z,1012.36
2016-08-02T02:29:00.660Z,1012.34
2016-08-02T02:30:00.685Z,1012.34
2016-08-02T02:31:00.712Z,1012.34
2016-08-02T02:32:00.735Z,1012.33
2016-08-02T02:33:00.760Z,1012.34
2016-08-02T02:34:00.786Z,1012.33
2016-08-02T02:36:00.837Z,1012.3
2016-08-02T02:37:00.862Z,1012.3
2016-08-02T02:38:00.884Z,1012.3
2016-08-02T02:40:00.935Z,1012.36
2016-08-02T02:41:00.961Z,1012.28
2016-08-02T02:42:00.986Z,1012.29
2016-08-02T02:43:01.009Z,1012.34
2016-08-02T02:44:01.035Z,1012.36
2016-08-02T02:45:01.060Z,1012.32
2016-08-02T02:46:01.084Z,1012.33
2016-08-02T02:47:01.110Z,1012.36
2016-08-02T02:48:01.133Z,1012.36
2016-08-02T02:49:01.160Z,1012.37
2016-08-02T02:50:01.184Z,1012.35
2016-08-02T02:51:01.208Z,1012.36
2016-08-02T02:52:01.234Z,1012.33
2016-08-02T02:53:01.257Z,1012.36
2016-08-02T02:55:01.307Z,1012.33
2016-08-02T02:56:01.332Z,1012.31
2016-08-02T02:57:01.358Z,1012.33
2016-08-02T02:58:01.382Z,1012.29
2016-08-02T02:59:01.404Z,1012.3
2016-08-02T03:00:01.429Z,1012.3
2016-08-02T03:01:01.454Z,1012.34
2016-08-02T03:02:01.481Z,1012.32
2016-08-02T03:03:01.503Z,1012.27
2016-08-02T03:04:01.528Z,1012.27
2016-08-02T03:05:01.560Z,1012.28
2016-08-02T03:06:01.579Z,1012.29
2016-08-02T03:08:01.628Z,1012.23
2016-08-02T03:10:01.684Z,1012.22
2016-08-02T03:11:01.700Z,1012.24
2016-08-02T03:12:01.725Z,1012.25
2016-08-02T03:13:01.749Z,1012.24
2016-08-02T03:14:01.773Z,1012.26
2016-08-02T03:15:01.799Z,1012.24
2016-08-02T03:16:01.823Z,1012.27
2016-08-02T03:17:01.847Z,1012.2
2016-08-02T03:18:01.874Z,1012.23
2016-08-02T03:19:01.897Z,1012.21
2016-08-02T03:20:01.922Z,1012.21
2016-08-02T03:21:01.948Z,1012.21
2016-08-02T03:22:01.971Z,1012.25
2016-08-02T03:24:02.023Z,1012.25
2016-08-02T03:25:02.044Z,1012.26
2016-08-02T03:26:02.068Z,1012.25
2016-08-02T03:27:02.094Z,1012.22
2016-08-02T03:28:02.120Z,1012.23
2016-08-02T03:29:02.142Z,1012.27
2016-08-02T03:30:02.170Z,1012.27
2016-08-02T03:31:02.197Z,1012.26
2016-08-02T03:32:02.217Z,1012.28
2016-08-02T03:33:02.243Z,1012.29
2016-08-02T03:34:02.268Z,1012.24
2016-08-02T03:35:02.292Z,1012.23
2016-08-02T03:36:02.316Z,1012.23
2016-08-02T03:37:02.340Z,1012.21
2016-08-02T03:38:02.364Z,1012.19
2016-08-02T03:40:02.413Z,1012.16
2016-08-02T03:41:02.437Z,1012.16
2016-08-02T03:42:02.464Z,1012.12
2016-08-02T03:43:02.486Z,1012.13
2016-08-02T03:44:02.511Z,1012.07
2016-08-02T03:45:02.537Z,1012.14
2016-08-02T03:46:02.561Z,1012.16
2016-08-02T03:47:02.586Z,1012.09
2016-08-02T03:48:02.612Z,1012.09
2016-08-02T03:49:02.637Z,1012.13
2016-08-02T03:50:02.658Z,1012.14
2016-08-02T03:51:02.683Z,1012.1
2016-08-02T03:52:02.710Z,1012.14
2016-08-02T03:53:02.734Z,1012.13
2016-08-02T03:54:02.758Z,1012.13
2016-08-02T03:56:02.806Z,1012.12
2016-08-02T03:57:02.831Z,1012.09
2016-08-02T03:58:02.855Z,1012.09
2016-08-02T03:59:02.879Z,1012.03
2016-08-02T04:00:02.905Z,1012
2016-08-02T04:01:02.928Z,1012.09
2016-08-02T04:02:02.954Z,1012.08
2016-08-02T04:03:02.980Z,1012.08
2016-08-02T04:04:03.005Z,1012.11
2016-08-02T04:05:03.029Z,1012.11
2016-08-02T04:06:03.053Z,1012.11
2016-08-02T04:07:03.078Z,1012.11
2016-08-02T04:08:03.100Z,1012.14
2016-08-02T04:09:03.126Z,1012.12
2016-08-02T04:11:03.175Z,1012.14
2016-08-02T04:12:03.201Z,1012.1
2016-08-02T04:13:03.227Z,1012.15
2016-08-02T04:14:03.249Z,1012.11
2016-08-02T04:15:03.274Z,1012.15
2016-08-02T04:16:03.299Z,1012.11
2016-08-02T04:17:03.333Z,1012.13
2016-08-02T04:18:03.348Z,1012.11
2016-08-02T04:19:03.372Z,1012.12
2016-08-02T04:20:03.397Z,1012.11
2016-08-02T04:21:03.423Z,1012.07
2016-08-02T04:22:03.449Z,1012.08
2016-08-02T04:23:03.474Z,1012.07
2016-08-02T04:24:03.496Z,1012.08
2016-08-02T04:25:03.523Z,1012.09
2016-08-02T04:26:03.549Z,1012.14
2016-08-02T04:27:03.571Z,1012.13
2016-08-02T04:28:03.598Z,1012.13
2016-08-02T04:29:03.623Z,1012.12
2016-08-02T04:30:03.647Z,1012.15
2016-08-02T04:31:03.669Z,1012.19
2016-08-02T04:32:03.695Z,1012.12
2016-08-02T04:33:03.720Z,1012.12
2016-08-02T04:34:03.747Z,1012.11
2016-08-02T04:35:03.772Z,1012.16
2016-08-02T04:36:03.797Z,1012.14
2016-08-02T04:37:03.820Z,1012.15
2016-08-02T04:38:03.846Z,1012.14
2016-08-02T04:39:03.872Z,1012.1
2016-08-02T04:40:03.896Z,1012.16
2016-08-02T04:41:03.921Z,1012.09
2016-08-02T04:43:03.972Z,1012.07
2016-08-02T04:44:03.998Z,1012.06
2016-08-02T04:45:04.020Z,1012.03
2016-08-02T04:46:04.096Z,1012.04
2016-08-02T04:47:04.071Z,1012.06
2016-08-02T04:48:04.097Z,1012.06
2016-08-02T04:49:04.122Z,1012.05
2016-08-02T04:50:04.150Z,1011.99
2016-08-02T04:51:04.176Z,1011.98
2016-08-02T04:52:04.197Z,1012.01
2016-08-02T04:53:04.223Z,1011.97
2016-08-02T04:54:04.249Z,1011.97
2016-08-02T04:55:04.275Z,1011.97
2016-08-02T04:56:04.299Z,1011.91
2016-08-02T04:57:04.326Z,1011.93
2016-08-02T04:59:04.378Z,1011.98
2016-08-02T05:00:04.404Z,1012.27
2016-08-02T05:01:04.429Z,1012.3
2016-08-02T05:02:04.453Z,1012.34
2016-08-02T05:03:04.486Z,1012.29
2016-08-02T05:04:04.507Z,1012.37
2016-08-02T05:05:04.532Z,1012.38
2016-08-02T05:06:04.558Z,1012.39
2016-08-02T05:07:04.587Z,1012.39
2016-08-02T05:08:04.615Z,1012.43
2016-08-02T05:09:04.643Z,1012.48
2016-08-02T05:10:04.671Z,1012.53
2016-08-02T05:11:04.696Z,1012.52
2016-08-02T05:12:04.725Z,1012.47
2016-08-02T05:13:04.754Z,1012.47
2016-08-02T05:15:04.813Z,1012.47
2016-08-02T05:16:04.844Z,1012.46
2016-08-02T05:17:04.875Z,1012.47
2016-08-02T05:18:04.905Z,1012.52
2016-08-02T05:19:04.934Z,1012.53
2016-08-02T05:20:04.966Z,1012.51
2016-08-02T05:21:04.996Z,1012.51
2016-08-02T05:22:05.026Z,1012.56
2016-08-02T05:23:05.058Z,1012.54
2016-08-02T05:24:05.090Z,1012.5
2016-08-02T05:25:05.124Z,1012.54
2016-08-02T05:26:05.155Z,1012.32
2016-08-02T05:27:05.187Z,1012.28
2016-08-02T05:28:05.272Z,1012.32
2016-08-02T05:29:05.251Z,1012.31
2016-08-02T05:31:05.319Z,1012.28
2016-08-02T05:32:05.348Z,1012.28
2016-08-02T05:33:05.380Z,1012.28
2016-08-02T05:34:05.414Z,1012.35
2016-08-02T05:35:05.445Z,1012.31
2016-08-02T05:36:05.476Z,1012.35
2016-08-02T05:37:05.508Z,1012.32
2016-08-02T05:38:05.535Z,1012.31
2016-08-02T05:39:05.567Z,1012.32
2016-08-02T05:40:05.597Z,1012.56
2016-08-02T05:41:05.628Z,1012.56
2016-08-02T05:42:05.658Z,1012.47
2016-08-02T05:43:05.691Z,1012.88
2016-08-02T05:44:05.721Z,1012.87
2016-08-02T05:46:06.134Z,1012.87
2016-08-02T05:47:05.813Z,1012.69
2016-08-02T05:48:05.844Z,1012.58
2016-08-02T05:49:05.878Z,1012.56
2016-08-02T05:50:05.906Z,1012.63
2016-08-02T05:51:05.937Z,1012.56
2016-08-02T05:52:05.971Z,1012.57
2016-08-02T05:53:06.001Z,1012.62
2016-08-02T05:54:06.032Z,1012.72
2016-08-02T05:55:06.065Z,1012.79
2016-08-02T05:56:06.098Z,1012.65
2016-08-02T05:57:06.130Z,1012.5
2016-08-02T05:58:06.162Z,1012.44
2016-08-02T05:59:06.193Z,1012.63
2016-08-02T06:00:06.227Z,1012.72
2016-08-02T06:01:06.259Z,1012.75
2016-08-02T06:02:06.290Z,1012.81
2016-08-02T06:03:06.322Z,1012.81
2016-08-02T06:04:06.354Z,1012.85
2016-08-02T06:05:06.385Z,1012.84
2016-08-02T06:06:06.421Z,1012.83
2016-08-02T06:07:06.454Z,1012.85
2016-08-02T06:08:06.488Z,1012.73
2016-08-02T06:09:06.519Z,1012.89
2016-08-02T06:10:06.554Z,1012.88
2016-08-02T06:11:06.586Z,1012.82
2016-08-02T06:12:06.621Z,1012.81
2016-08-02T06:13:06.654Z,1012.78
2016-08-02T06:14:06.686Z,1012.73
2016-08-02T06:15:06.723Z,1012.76
2016-08-02T06:16:06.754Z,1012.67
2016-08-02T06:18:06.823Z,1012.33
2016-08-02T06:19:06.859Z,1012.38
2016-08-02T06:20:06.889Z,1012.36
2016-08-02T06:21:06.923Z,1012.36
2016-08-02T06:22:06.958Z,1012.36
2016-08-02T06:23:06.991Z,1012.37
2016-08-02T06:24:07.025Z,1012.38
2016-08-02T06:25:07.058Z,1012.33
2016-08-02T06:26:07.092Z,1012.35
2016-08-02T06:27:07.122Z,1012.29
2016-08-02T06:28:07.157Z,1012.26
2016-08-02T06:29:07.189Z,1012.21
2016-08-02T06:30:07.221Z,1012.23
2016-08-02T06:31:07.252Z,1012.28
2016-08-02T06:32:07.286Z,1012.25
2016-08-02T06:34:07.350Z,1012.21
2016-08-02T06:35:07.380Z,1012.21
2016-08-02T06:36:07.410Z,1012.27
2016-08-02T06:37:07.440Z,1012.25
2016-08-02T06:38:07.474Z,1012.29
2016-08-02T06:39:07.503Z,1012.33
2016-08-02T06:40:07.536Z,1012.35
2016-08-02T06:41:07.564Z,1012.38
2016-08-02T06:42:07.607Z,1012.41
2016-08-02T06:43:07.625Z,1012.48
2016-08-02T06:44:07.657Z,1012.52
2016-08-02T06:45:07.689Z,1012.53
2016-08-02T06:46:07.715Z,1012.51
2016-08-02T06:47:07.748Z,1012.54
2016-08-02T06:48:07.827Z,1012.55
2016-08-02T06:50:07.838Z,1012.65
2016-08-02T06:51:07.867Z,1012.59
2016-08-02T06:52:07.896Z,1012.65
2016-08-02T06:53:07.927Z,1012.62
2016-08-02T06:54:07.955Z,1012.64
2016-08-02T06:55:07.985Z,1012.62
2016-08-02T06:56:08.015Z,1012.67
2016-08-02T06:57:08.043Z,1012.64
2016-08-02T06:58:08.074Z,1012.54
2016-08-02T06:59:08.103Z,1012.53
2016-08-02T07:00:08.136Z,1012.54
2016-08-02T07:01:08.160Z,1012.51
2016-08-02T07:02:08.191Z,1012.49
2016-08-02T07:03:08.222Z,1012.52
2016-08-02T07:04:08.250Z,1012.47
2016-08-02T07:06:08.310Z,1012.46
2016-08-02T07:07:08.339Z,1012.45
2016-08-02T07:08:08.367Z,1012.42
2016-08-02T07:09:08.396Z,1012.41
2016-08-02T07:10:08.423Z,1012.42
2016-08-02T07:11:08.453Z,1012.42
2016-08-02T07:12:08.483Z,1012.42
2016-08-02T07:13:08.510Z,1012.42
2016-08-02T07:14:08.539Z,1012.42
2016-08-02T07:15:08.567Z,1012.42
2016-08-02T07:16:08.598Z,1012.38
2016-08-02T07:17:08.624Z,1012.39
2016-08-02T07:18:08.655Z,1012.42
2016-08-02T07:19:08.682Z,1012.41
2016-08-02T07:21:08.741Z,1012.39
2016-08-02T07:22:08.767Z,1012.37
2016-08-02T07:23:08.796Z,1012.38
2016-08-02T07:24:08.824Z,1012.35
2016-08-02T07:25:08.852Z,1012.35
2016-08-02T07:26:08.880Z,1012.37
2016-08-02T07:27:08.909Z,1012.36
2016-08-02T07:28:08.937Z,1012.37
2016-08-02T07:29:08.964Z,1012.37
2016-08-02T07:30:08.993Z,1012.35
2016-08-02T07:31:09.022Z,1012.37
2016-08-02T07:32:09.061Z,1012.38
2016-08-02T07:33:09.075Z,1012.4
2016-08-02T07:34:09.107Z,1012.41
2016-08-02T07:35:09.135Z,1012.38
2016-08-02T07:36:09.161Z,1012.38
2016-08-02T07:37:09.188Z,1012.35
2016-08-02T07:38:09.216Z,1012.35
2016-08-02T07:39:09.247Z,1012.38
2016-08-02T07:40:09.274Z,1012.4
2016-08-02T07:41:09.299Z,1012.38
2016-08-02T07:42:09.330Z,1012.31
2016-08-02T07:43:09.356Z,1012.35
2016-08-02T07:44:09.384Z,1012.33
2016-08-02T07:45:09.418Z,1012.33
2016-08-02T07:46:09.442Z,1012.34
2016-08-02T07:47:09.469Z,1012.32
2016-08-02T07:48:09.496Z,1012.35
2016-08-02T07:49:09.522Z,1012.32
2016-08-02T07:50:09.551Z,1012.36
2016-08-02T07:51:09.577Z,1012.39
2016-08-02T07:53:09.634Z,1012.42
2016-08-02T07:54:09.662Z,1012.46
2016-08-02T07:55:09.689Z,1012.48
2016-08-02T07:56:09.719Z,1012.51
2016-08-02T07:57:09.746Z,1012.49
2016-08-02T07:58:09.774Z,1012.49
2016-08-02T07:59:09.803Z,1012.47
2016-08-02T08:00:09.979Z,1012.41
2016-08-02T08:01:09.856Z,1012.37
2016-08-02T08:02:09.884Z,1012.4
2016-08-02T08:03:09.912Z,1012.37
2016-08-02T08:04:09.940Z,1012.42
2016-08-02T08:05:09.969Z,1012.39
2016-08-02T08:06:09.998Z,1012.34
2016-08-02T08:07:10.026Z,1012.36
2016-08-02T08:09:10.081Z,1012.31
2016-08-02T08:10:10.108Z,1012.3
2016-08-02T08:11:10.134Z,1012.33
2016-08-02T08:12:10.164Z,1012.28
2016-08-02T08:13:10.192Z,1012.27
2016-08-02T08:14:10.220Z,1012.26
2016-08-02T08:15:10.248Z,1012.26
2016-08-02T08:16:10.276Z,1012.25
2016-08-02T08:17:10.301Z,1012.24
2016-08-02T08:18:10.329Z,1012.24
2016-08-02T08:19:10.359Z,1012.23
2016-08-02T08:20:10.387Z,1012.25
2016-08-02T08:21:10.415Z,1012.18
2016-08-02T08:22:10.440Z,1012.2
2016-08-02T08:23:10.468Z,1012.2
2016-08-02T08:25:10.525Z,1012.17
2016-08-02T08:26:10.552Z,1012.16
2016-08-02T08:27:10.581Z,1012.11
2016-08-02T08:28:10.606Z,1012.16
2016-08-02T08:29:10.634Z,1012.15
2016-08-02T08:30:10.664Z,1012.14
2016-08-02T08:31:10.691Z,1012.1
2016-08-02T08:32:10.719Z,1012.11
2016-08-02T08:33:10.744Z,1012.08
2016-08-02T08:34:10.773Z,1012.1
2016-08-02T08:35:10.801Z,1012.09
2016-08-02T08:36:10.826Z,1012.11
2016-08-02T08:37:10.857Z,1012.13
2016-08-02T08:38:10.885Z,1012.12
2016-08-02T08:39:10.909Z,1012.08
2016-08-02T08:41:10.965Z,1012.11
2016-08-02T08:42:10.995Z,1012.1
2016-08-02T08:43:11.021Z,1012.12
2016-08-02T08:44:11.047Z,1012.1
2016-08-02T08:45:11.074Z,1012.13
2016-08-02T08:46:11.103Z,1012.13
2016-08-02T08:47:11.130Z,1012.12
2016-08-02T08:48:11.159Z,1012.15
2016-08-02T08:49:11.185Z,1012.17
2016-08-02T08:50:11.211Z,1012.12
2016-08-02T08:51:11.241Z,1012.15
2016-08-02T08:52:11.268Z,1012.12
2016-08-02T08:53:11.295Z,1012.1
2016-08-02T08:54:11.322Z,1012.1
2016-08-02T08:56:11.380Z,1012.08
2016-08-02T08:57:11.405Z,1012.1
2016-08-02T08:58:11.434Z,1012.08
2016-08-02T08:59:11.461Z,1012.03
2016-08-02T09:00:11.842Z,1012.03
2016-08-02T09:01:11.516Z,1012.03
2016-08-02T09:02:11.546Z,1012.05
2016-08-02T09:03:11.572Z,1012.02
2016-08-02T09:04:11.599Z,1012.04
2016-08-02T09:05:11.629Z,1012.04
2016-08-02T09:06:11.657Z,1012.06
2016-08-02T09:07:11.685Z,1012.05
2016-08-02T09:08:11.712Z,1012.02
2016-08-02T09:09:11.738Z,1012.02
2016-08-02T09:11:11.796Z,1011.98
2016-08-02T09:12:11.821Z,1011.95
2016-08-02T09:13:11.848Z,1011.95
2016-08-02T09:14:11.876Z,1012
2016-08-02T09:15:11.906Z,1011.97
2016-08-02T09:16:11.934Z,1011.97
2016-08-02T09:17:11.960Z,1011.99
2016-08-02T09:18:11.988Z,1011.94
2016-08-02T09:19:12.017Z,1011.93
2016-08-02T09:20:12.044Z,1011.92
2016-08-02T09:21:12.073Z,1011.93
2016-08-02T09:22:12.102Z,1011.89
2016-08-02T09:23:12.130Z,1011.91
2016-08-02T09:24:12.155Z,1011.89
2016-08-02T09:26:12.213Z,1011.9
2016-08-02T09:28:12.269Z,1011.87
2016-08-02T09:29:12.295Z,1011.88
2016-08-02T09:30:12.322Z,1011.86
2016-08-02T09:31:12.356Z,1011.9
2016-08-02T09:32:12.379Z,1011.89
2016-08-02T09:33:12.409Z,1011.84
2016-08-02T09:34:12.436Z,1011.82
2016-08-02T09:35:12.462Z,1011.81
2016-08-02T09:36:12.493Z,1011.84
2016-08-02T09:37:12.520Z,1011.79
2016-08-02T09:38:12.548Z,1011.83
2016-08-02T09:39:12.575Z,1011.8
2016-08-02T09:40:12.603Z,1011.8
2016-08-02T09:41:12.635Z,1011.83
2016-08-02T09:42:12.658Z,1011.88
2016-08-02T09:44:12.717Z,1011.89
2016-08-02T09:45:12.746Z,1011.88
2016-08-02T09:46:12.770Z,1011.92
2016-08-02T09:47:12.798Z,1011.89
2016-08-02T09:48:12.827Z,1011.92
2016-08-02T09:49:12.856Z,1011.89
2016-08-02T09:50:12.885Z,1011.88
2016-08-02T09:51:12.910Z,1011.84
2016-08-02T09:52:12.938Z,1011.85
2016-08-02T09:53:12.968Z,1011.81
2016-08-02T09:54:12.995Z,1011.81
2016-08-02T09:55:13.024Z,1011.75
2016-08-02T09:56:13.050Z,1011.76
2016-08-02T09:57:13.079Z,1011.75
2016-08-02T09:58:13.106Z,1011.74
2016-08-02T10:00:13.162Z,1011.77
2016-08-02T10:01:13.189Z,1011.8
2016-08-02T10:02:13.218Z,1011.77
2016-08-02T10:03:13.245Z,1011.8
2016-08-02T10:04:13.272Z,1011.82
2016-08-02T10:05:13.302Z,1011.83
2016-08-02T10:06:13.333Z,1011.8
2016-08-02T10:07:13.357Z,1011.82
2016-08-02T10:08:13.385Z,1011.77
2016-08-02T10:09:13.413Z,1011.77
2016-08-02T10:10:13.440Z,1011.82
2016-08-02T10:11:13.471Z,1011.81
2016-08-02T10:12:13.498Z,1011.79
2016-08-02T10:13:13.529Z,1011.78
2016-08-02T10:14:13.553Z,1011.78
2016-08-02T10:16:13.613Z,1011.75
2016-08-02T10:17:13.646Z,1011.72
2016-08-02T10:18:13.665Z,1011.72
2016-08-02T10:19:13.694Z,1011.73
2016-08-02T10:20:13.725Z,1011.71
2016-08-02T10:21:13.752Z,1011.68
2016-08-02T10:22:13.781Z,1011.7
2016-08-02T10:23:13.809Z,1011.68
2016-08-02T10:24:13.836Z,1011.69
2016-08-02T10:25:13.863Z,1011.65
2016-08-02T10:26:13.893Z,1011.68
2016-08-02T10:27:13.922Z,1011.68
2016-08-02T10:28:13.949Z,1011.66
2016-08-02T10:29:13.978Z,1011.63
2016-08-02T10:31:14.033Z,1011.6
2016-08-02T10:32:14.061Z,1011.6
2016-08-02T10:33:14.087Z,1011.56
2016-08-02T10:34:14.116Z,1011.58
2016-08-02T10:35:14.146Z,1011.56
2016-08-02T10:36:14.173Z,1011.56
2016-08-02T10:37:14.201Z,1011.54
2016-08-02T10:38:14.232Z,1011.53
2016-08-02T10:39:14.256Z,1011.48
2016-08-02T10:40:14.285Z,1011.5
2016-08-02T10:41:14.313Z,1011.52
2016-08-02T10:42:14.341Z,1011.53
2016-08-02T10:43:14.366Z,1011.53
2016-08-02T10:44:14.397Z,1011.49
2016-08-02T10:45:14.423Z,1011.49
2016-08-02T10:46:14.452Z,1011.48
2016-08-02T10:47:14.479Z,1011.45
2016-08-02T10:48:14.505Z,1011.45
2016-08-02T10:49:14.537Z,1011.43
2016-08-02T10:50:14.562Z,1011.44
2016-08-02T10:51:14.592Z,1011.43
2016-08-02T10:52:14.622Z,1011.44
2016-08-02T10:53:14.646Z,1011.46
2016-08-02T10:54:14.676Z,1011.46
2016-08-02T10:55:14.703Z,1011.42
2016-08-02T10:56:14.731Z,1011.4
2016-08-02T10:57:14.760Z,1011.35
2016-08-02T10:58:14.788Z,1011.33
2016-08-02T10:59:14.816Z,1011.33
2016-08-02T11:00:14.844Z,1011.37
2016-08-02T11:01:14.872Z,1011.37
2016-08-02T11:03:14.928Z,1011.4
2016-08-02T11:04:14.958Z,1011.36
2016-08-02T11:05:14.983Z,1011.32
2016-08-02T11:06:15.012Z,1011.33
2016-08-02T11:07:15.039Z,1011.36
2016-08-02T11:08:15.068Z,1011.36
2016-08-02T11:09:15.097Z,1011.32
2016-08-02T11:10:15.128Z,1011.32
2016-08-02T11:11:15.155Z,1011.34
2016-08-02T11:12:15.184Z,1011.29
2016-08-02T11:13:15.212Z,1011.28
2016-08-02T11:14:15.239Z,1011.24
2016-08-02T11:15:15.269Z,1011.23
2016-08-02T11:16:15.295Z,1011.29
2016-08-02T11:17:15.326Z,1011.23
2016-08-02T11:19:15.381Z,1011.22
2016-08-02T11:20:15.410Z,1011.23
2016-08-02T11:21:15.441Z,1011.24
2016-08-02T11:22:15.467Z,1011.17
2016-08-02T11:23:15.494Z,1011.17
2016-08-02T11:24:15.525Z,1011.17
2016-08-02T11:25:15.551Z,1011.21
2016-08-02T11:26:15.583Z,1011.21
2016-08-02T11:27:15.610Z,1011.18
2016-08-02T11:28:15.643Z,1011.19
2016-08-02T11:29:15.668Z,1011.22
2016-08-02T11:30:15.697Z,1011.16
2016-08-02T11:31:15.723Z,1011.2
2016-08-02T11:32:15.752Z,1011.14
2016-08-02T11:33:15.782Z,1011.17
2016-08-02T11:35:15.839Z,1011.12
2016-08-02T11:36:15.866Z,1011.16
2016-08-02T11:37:15.893Z,1011.13
2016-08-02T11:38:15.920Z,1011.11
2016-08-02T11:39:15.948Z,1011.11
2016-08-02T11:40:15.979Z,1011.1
2016-08-02T11:41:16.006Z,1011.11
2016-08-02T11:42:16.036Z,1011.08
2016-08-02T11:43:16.062Z,1011.09
2016-08-02T11:44:16.093Z,1011.07
2016-08-02T11:45:16.120Z,1011.05
2016-08-02T11:46:16.148Z,1011.05
2016-08-02T11:47:16.177Z,1011.03
2016-08-02T11:48:16.203Z,1011.07
2016-08-02T11:49:16.231Z,1011.04
2016-08-02T11:51:16.288Z,1010.98
2016-08-02T11:52:16.318Z,1011
2016-08-02T11:53:16.345Z,1011.01
2016-08-02T11:54:16.372Z,1011.03
2016-08-02T11:55:16.399Z,1011.01
2016-08-02T11:56:16.427Z,1010.96
2016-08-02T11:57:16.458Z,1011
2016-08-02T11:58:16.483Z,1011
2016-08-02T11:59:16.515Z,1010.99
2016-08-02T12:00:16.541Z,1011.04
2016-08-02T12:01:16.568Z,1011.01
2016-08-02T12:02:16.601Z,1011
2016-08-02T12:03:16.626Z,1011.01
2016-08-02T12:04:16.653Z,1011.01
2016-08-02T12:06:16.710Z,1011.02
2016-08-02T12:07:16.735Z,1011.03
2016-08-02T12:08:16.765Z,1011.09
2016-08-02T12:09:16.793Z,1011.04
2016-08-02T12:10:16.821Z,1011.03
2016-08-02T12:11:16.846Z,1011.06
2016-08-02T12:12:16.926Z,1011.03
2016-08-02T12:13:16.902Z,1011.02
2016-08-02T12:14:16.930Z,1011.04
2016-08-02T12:15:16.961Z,1011
2016-08-02T12:16:16.987Z,1011.03
2016-08-02T12:17:17.012Z,1011.05
2016-08-02T12:18:17.042Z,1011.06
2016-08-02T12:19:17.068Z,1011.07
2016-08-02T12:20:17.097Z,1011.07
2016-08-02T12:21:17.123Z,1011.04
2016-08-02T12:22:17.149Z,1011.01
2016-08-02T12:23:17.177Z,1011.01
2016-08-02T12:24:17.208Z,1010.99
2016-08-02T12:25:17.235Z,1010.99
2016-08-02T12:26:17.263Z,1011.03
2016-08-02T12:27:17.290Z,1011.04
2016-08-02T12:28:17.319Z,1011.04
2016-08-02T12:29:17.345Z,1011.08
2016-08-02T12:30:17.372Z,1011.05
2016-08-02T12:31:17.398Z,1011.02
2016-08-02T12:32:17.426Z,1011.09
2016-08-02T12:33:17.456Z,1011.03
2016-08-02T12:34:17.483Z,1011.03
2016-08-02T12:35:17.509Z,1011.01
2016-08-02T12:36:17.535Z,1011.05
2016-08-02T12:38:17.593Z,1011.07
2016-08-02T12:39:17.621Z,1011.11
2016-08-02T12:40:17.648Z,1011.09
2016-08-02T12:41:17.672Z,1011.07
2016-08-02T12:42:17.701Z,1011.08
2016-08-02T12:43:17.736Z,1011.09
2016-08-02T12:44:17.755Z,1011.13
2016-08-02T12:45:17.786Z,1011.08
2016-08-02T12:46:17.814Z,1011.09
2016-08-02T12:47:17.842Z,1011.08
2016-08-02T12:48:17.867Z,1011.05
2016-08-02T12:49:17.894Z,1011.05
2016-08-02T12:50:17.922Z,1011.05
2016-08-02T12:51:17.949Z,1011.03
2016-08-02T12:52:17.976Z,1011.04
2016-08-02T12:54:18.032Z,1011.03
2016-08-02T12:55:18.059Z,1011.04
2016-08-02T12:56:18.090Z,1011.05